Time;durP1;ratioP1;P1;durP2;ratioP2;P2;SDS_P1;SDS_P2;PMS_P1;PMS_P2;Temp;Humidity;BMP_temperature;BMP_pressure;BME280_temperature;BME280_humidity;BME280_pressure;Samples;Min_cycle;Max_cycle;Signal;HPM_P1;HPM_P2
2021/05/13 00:01:42;;;;;;;10.23;4.88;;;;;;;8.68;94.12;98140.59;5057273;28;20074;-67
2021/05/13 00:04:07;;;;;;;6.05;4.45;;;;;;;8.59;94.54;98139.13;5066040;28;20034;-66
2021/05/13 00:06:32;;;;;;;10.43;4.75;;;;;;;8.52;94.61;98132.94;5057016;28;20029;-67
2021/05/13 00:08:58;;;;;;;8.98;4.95;;;;;;;8.55;94.46;98132.50;5074747;28;20028;-66
2021/05/13 00:11:31;;;;;;;11.07;4.72;;;;;;;8.53;94.66;98135.41;5075180;28;20028;-66
2021/05/13 00:13:57;;;;;;;6.10;4.10;;;;;;;8.52;94.27;98132.94;5078456;28;20024;-66
2021/05/13 00:16:29;;;;;;;6.97;4.03;;;;;;;8.51;94.19;98124.03;5087421;28;20055;-67
2021/05/13 00:18:54;;;;;;;9.45;4.60;;;;;;;8.47;94.25;98130.84;5085108;28;20028;-66
2021/05/13 00:21:20;;;;;;;5.13;3.80;;;;;;;8.38;94.42;98107.78;5079778;28;20111;-66
2021/05/13 00:23:45;;;;;;;7.60;3.90;;;;;;;8.41;94.31;98126.28;5074765;28;20146;-67
2021/05/13 00:26:10;;;;;;;9.45;4.22;;;;;;;8.43;94.37;98124.19;5074972;28;20036;-67
2021/05/13 00:28:35;;;;;;;7.30;3.78;;;;;;;8.37;94.16;98130.38;5077480;28;20076;-66
2021/05/13 00:31:01;;;;;;;10.23;4.80;;;;;;;8.30;94.41;98124.97;5068174;28;20696;-66
2021/05/13 00:33:26;;;;;;;6.63;3.80;;;;;;;8.33;94.53;98121.03;5074714;28;20025;-68
2021/05/13 00:35:51;;;;;;;7.38;3.83;;;;;;;8.30;94.31;98113.38;5075100;28;20025;-66
2021/05/13 00:38:16;;;;;;;8.60;3.90;;;;;;;8.37;94.03;98105.31;5080390;28;20123;-66
2021/05/13 00:40:42;;;;;;;7.88;4.18;;;;;;;8.50;94.01;98116.94;5080345;28;20473;-66
2021/05/13 00:43:07;;;;;;;8.30;3.70;;;;;;;8.41;93.86;98112.81;5094926;28;20026;-66
2021/05/13 00:45:32;;;;;;;8.93;4.18;;;;;;;8.41;93.34;98109.25;5093557;28;20043;-67
2021/05/13 00:50:24;;;;;;;5.97;4.10;;;;;;;8.43;93.41;98102.63;5075219;28;20028;-66
2021/05/13 00:52:50;;;;;;;10.18;4.07;;;;;;;8.45;93.57;98113.22;5074758;28;20533;-66
2021/05/13 00:55:17;;;;;;;7.30;3.53;;;;;;;8.38;93.40;98110.47;5073635;28;20392;-67
2021/05/13 00:57:45;;;;;;;7.68;4.10;;;;;;;8.33;93.41;98115.66;5073479;28;20119;-66
2021/05/13 01:03:16;;;;;;;6.47;3.63;;;;;;;8.26;93.28;98120.22;5029201;28;20037;-67
2021/05/13 01:05:42;;;;;;;9.63;4.78;;;;;;;8.22;93.64;98110.88;5045517;28;20028;-67
2021/05/13 01:08:08;;;;;;;10.02;4.63;;;;;;;8.34;93.47;98131.63;5069307;28;20044;-67
2021/05/13 01:10:34;;;;;;;7.90;4.43;;;;;;;8.33;93.54;98129.13;5079219;28;20030;-66
2021/05/13 01:13:05;;;;;;;10.13;4.10;;;;;;;8.31;93.32;98112.34;5090971;28;20431;-67
2021/05/13 01:18:09;;;;;;;7.20;3.25;;;;;;;8.47;92.94;98121.94;5076192;28;20025;-66
2021/05/13 01:20:35;;;;;;;6.70;3.60;;;;;;;8.54;92.51;98120.06;5073778;28;20474;-67
2021/05/13 01:23:02;;;;;;;8.02;3.40;;;;;;;8.50;92.72;98130.44;5073652;28;20036;-67
2021/05/13 01:25:28;;;;;;;6.75;3.47;;;;;;;8.49;92.36;98117.19;5077579;28;20110;-67
2021/05/13 01:28:01;;;;;;;6.78;3.30;;;;;;;8.69;92.03;98127.94;5074291;28;20028;-67
2021/05/13 01:30:28;;;;;;;4.80;2.72;;;;;;;8.65;92.14;98126.72;5075404;28;20374;-67
2021/05/13 01:32:58;;;;;;;5.35;2.97;;;;;;;8.59;91.66;98117.56;5073565;28;20501;-66
2021/05/13 01:35:23;;;;;;;10.25;3.65;;;;;;;8.61;92.22;98114.69;5072662;28;20032;-65
2021/05/13 01:38:01;;;;;;;6.95;3.38;;;;;;;8.62;92.37;98110.94;5073907;28;20028;-67
2021/05/13 01:40:26;;;;;;;6.07;2.85;;;;;;;8.64;92.59;98103.47;5073771;28;20028;-67
2021/05/13 01:42:51;;;;;;;4.60;3.22;;;;;;;8.62;92.51;98111.78;5072144;28;20020;-67
2021/05/13 01:45:17;;;;;;;4.60;3.53;;;;;;;8.56;91.77;98099.13;5074333;28;20073;-66
2021/05/13 01:47:42;;;;;;;10.15;3.60;;;;;;;8.55;92.16;98106.38;5073232;28;20107;-66
2021/05/13 01:50:08;;;;;;;7.85;4.00;;;;;;;8.43;92.38;98086.47;5087134;28;20116;-67
2021/05/13 01:52:35;;;;;;;5.88;3.50;;;;;;;8.46;92.65;98091.47;5073202;28;20397;-66
2021/05/13 01:55:01;;;;;;;8.20;3.92;;;;;;;8.52;92.50;98100.56;5089525;28;20073;-67
2021/05/13 01:57:26;;;;;;;7.20;3.38;;;;;;;8.55;92.50;98092.06;5085091;28;20021;-66
2021/05/13 01:59:52;;;;;;;4.35;2.92;;;;;;;8.59;92.53;98101.38;5083875;28;20024;-67
2021/05/13 02:02:21;;;;;;;8.35;3.60;;;;;;;8.58;92.78;98097.03;5072450;28;20028;-66
2021/05/13 02:04:47;;;;;;;;;;;;;;;8.55;92.72;98090.19;5062692;28;20020;-66
2021/05/13 02:07:13;;;;;;;9.20;3.83;;;;;;;8.50;92.87;98091.88;5072515;28;20403;-66
2021/05/13 02:09:38;;;;;;;7.40;3.88;;;;;;;8.46;92.76;98079.81;5073440;28;20032;-67
2021/05/13 02:12:04;;;;;;;6.97;3.47;;;;;;;8.48;92.90;98081.28;5072892;28;20035;-68
2021/05/13 02:14:30;;;;;;;10.05;3.90;;;;;;;8.50;93.24;98076.50;5073123;28;20052;-67
2021/05/13 02:16:56;;;;;;;6.15;3.35;;;;;;;8.50;93.10;98079.22;5072193;28;20078;-68
2021/05/13 02:19:21;;;;;;;8.40;3.47;;;;;;;8.50;93.19;98068.41;5072526;28;20028;-67
2021/05/13 02:21:46;;;;;;;7.78;3.50;;;;;;;8.53;93.12;98084.19;5083215;28;20513;-67
2021/05/13 02:24:12;;;;;;;5.70;3.10;;;;;;;8.54;93.34;98074.22;5077501;28;20120;-67
2021/05/13 02:26:37;;;;;;;6.10;3.60;;;;;;;8.48;93.21;98065.09;5072358;28;20111;-67
2021/05/13 02:29:03;;;;;;;7.75;3.20;;;;;;;8.44;93.29;98055.78;5077489;28;20028;-68
2021/05/13 02:31:28;;;;;;;9.63;3.38;;;;;;;8.41;93.62;98058.06;5076069;28;20393;-67
2021/05/13 02:33:53;;;;;;;6.15;3.63;;;;;;;8.51;93.17;98064.72;5055858;28;20025;-67
2021/05/13 02:36:18;;;;;;;4.93;3.05;;;;;;;8.53;93.30;98062.59;5072126;28;20504;-70
2021/05/13 02:38:44;;;;;;;8.98;3.47;;;;;;;8.55;93.13;98063.25;5071778;28;20073;-67
2021/05/13 02:41:09;;;;;;;5.43;3.17;;;;;;;8.54;93.06;98061.59;5072362;28;20053;-67
2021/05/13 02:43:35;;;;;;;7.03;3.45;;;;;;;8.50;92.84;98064.91;5071614;28;20532;-67
2021/05/13 02:46:00;;;;;;;7.95;3.63;;;;;;;8.58;92.91;98064.69;5079881;28;20371;-67
2021/05/13 02:48:25;;;;;;;5.10;3.17;;;;;;;8.51;92.94;98055.78;5071695;28;20097;-68
2021/05/13 02:50:50;;;;;;;7.80;4.38;;;;;;;8.47;93.31;98066.16;5078234;28;20050;-68
2021/05/13 02:53:16;;;;;;;7.70;3.80;;;;;;;8.50;92.80;98037.94;5075599;28;20035;-66
2021/05/13 02:55:41;;;;;;;7.00;3.88;;;;;;;8.54;92.98;98064.28;5084600;28;20132;-67
2021/05/13 02:58:07;;;;;;;6.55;3.60;;;;;;;8.53;92.70;98059.09;5071962;28;20036;-67
2021/05/13 03:00:51;;;;;;;8.27;3.80;;;;;;;8.44;92.82;98050.41;5071298;28;20024;-66
2021/05/13 03:03:17;;;;;;;6.75;4.07;;;;;;;8.41;93.23;98055.34;5071090;28;20025;-67
2021/05/13 03:05:42;;;;;;;7.30;5.25;;;;;;;8.34;93.71;98061.56;5072003;28;20115;-69
2021/05/13 03:08:09;;;;;;;11.00;5.20;;;;;;;8.29;94.12;98065.91;5078755;28;20832;-66
2021/05/13 03:13:05;;;;;;;9.80;4.82;;;;;;;8.19;93.78;98047.44;5075941;28;20026;-66
2021/05/13 03:15:31;;;;;;;13.02;4.93;;;;;;;8.43;93.85;98064.06;5071754;28;20529;-66
2021/05/13 03:17:56;;;;;;;8.85;5.10;;;;;;;8.37;93.73;98070.28;5071334;28;20035;-65
2021/05/13 03:20:27;;;;;;;12.00;4.93;;;;;;;8.35;93.30;98062.38;5071272;28;20145;-66
2021/05/13 03:22:56;;;;;;;8.65;4.97;;;;;;;8.36;93.46;98061.34;5076470;28;20495;-67
2021/05/13 03:25:28;;;;;;;7.50;5.03;;;;;;;8.27;93.57;98057.19;5071924;28;20025;-67
2021/05/13 03:28:06;;;;;;;9.38;5.40;;;;;;;8.40;93.80;98073.41;5071541;28;20059;-66
2021/05/13 03:30:31;;;;;;;6.47;4.82;;;;;;;8.43;93.75;98064.88;5071835;28;20032;-66
2021/05/13 03:32:57;;;;;;;10.07;4.40;;;;;;;8.39;93.49;98055.59;5072776;28;20024;-66
2021/05/13 03:35:22;;;;;;;9.23;5.50;;;;;;;8.37;93.63;98054.91;5076071;28;20036;-66
2021/05/13 03:37:47;;;;;;;6.97;4.95;;;;;;;8.45;93.62;98057.44;5071110;28;20039;-67
2021/05/13 03:40:13;;;;;;;7.07;4.47;;;;;;;8.38;93.35;98055.75;5072120;28;20104;-67
2021/05/13 03:42:38;;;;;;;7.90;5.60;;;;;;;8.52;93.64;98058.28;5071979;28;20105;-67
2021/05/13 03:45:05;;;;;;;8.82;5.10;;;;;;;8.47;93.75;98055.38;5074852;28;20028;-66
2021/05/13 03:47:30;;;;;;;9.38;5.07;;;;;;;8.47;93.74;98052.66;5070938;28;20506;-66
2021/05/13 03:49:55;;;;;;;6.65;4.20;;;;;;;8.44;93.73;98049.56;5070633;28;20104;-66
2021/05/13 03:52:21;;;;;;;8.70;4.90;;;;;;;8.44;93.90;98050.41;5071274;28;20029;-66
2021/05/13 03:54:46;;;;;;;6.57;4.60;;;;;;;8.44;93.99;98046.88;5088167;28;20028;-66
2021/05/13 03:57:11;;;;;;;7.97;4.60;;;;;;;8.41;93.88;98044.56;5073282;28;20478;-65
2021/05/13 03:59:39;;;;;;;8.73;4.65;;;;;;;8.47;93.53;98038.38;5053279;28;20024;-66
2021/05/13 04:02:38;;;;;;;8.05;5.40;;;;;;;8.48;93.43;98038.13;5071143;28;20535;-66
2021/05/13 04:04:56;;;;;;;11.00;5.00;;;;;;;8.46;93.55;98048.31;5069063;28;20051;-67
2021/05/13 04:07:22;;;;;;;11.63;4.88;;;;;;;8.50;93.51;98046.84;5070909;28;20394;-67
2021/05/13 04:09:48;;;;;;;8.90;4.47;;;;;;;8.56;93.49;98048.72;5074993;28;20030;-67
2021/05/13 04:12:13;;;;;;;6.03;4.03;;;;;;;8.72;93.21;98049.31;5075001;28;20028;-67
2021/05/13 04:14:38;;;;;;;10.73;4.00;;;;;;;8.80;92.12;98049.09;5090072;28;20028;-67
2021/05/13 04:17:07;;;;;;;6.00;3.25;;;;;;;8.87;91.30;98055.31;5085442;28;20033;-67
2021/05/13 04:19:32;;;;;;;6.10;4.13;;;;;;;8.76;91.30;98047.88;5057706;28;20046;-66
2021/05/13 04:21:58;;;;;;;6.18;3.05;;;;;;;8.71;91.31;98053.06;5077312;28;20028;-67
2021/05/13 04:24:23;;;;;;;5.38;3.63;;;;;;;8.67;91.88;98049.97;5077483;28;20063;-67
2021/05/13 04:26:48;;;;;;;8.60;3.22;;;;;;;8.63;92.03;98047.88;5086604;28;20035;-67
2021/05/13 04:29:13;;;;;;;7.18;3.88;;;;;;;8.61;92.21;98044.56;5100277;28;20521;-67
2021/05/13 04:31:39;;;;;;;7.47;3.70;;;;;;;8.60;92.01;98032.97;5070121;28;20470;-67
2021/05/13 04:34:04;;;;;;;6.50;3.22;;;;;;;8.65;91.82;98035.84;5080265;28;20060;-67
2021/05/13 04:36:30;;;;;;;4.72;3.45;;;;;;;8.75;92.05;98046.19;5080129;28;20024;-67
2021/05/13 04:38:56;;;;;;;8.55;3.97;;;;;;;8.89;91.90;98044.31;5061418;28;20082;-66
2021/05/13 04:41:22;;;;;;;6.90;3.42;;;;;;;8.83;91.11;98034.34;5082072;28;20024;-66
2021/05/13 04:43:48;;;;;;;9.07;3.70;;;;;;;8.84;91.26;98039.56;5079810;28;20482;-67
2021/05/13 04:46:15;;;;;;;11.80;3.58;;;;;;;8.87;91.47;98038.31;5091311;28;20477;-67
2021/05/13 04:51:25;;;;;;;6.25;3.60;;;;;;;9.14;90.72;98041.75;5091952;28;20023;-68
2021/05/13 04:53:50;;;;;;;6.03;3.60;;;;;;;9.29;90.28;98031.50;5095202;28;20073;-67
2021/05/13 04:56:17;;;;;;;4.80;3.22;;;;;;;9.31;89.40;98031.31;5063729;28;20027;-67
2021/05/13 04:58:43;;;;;;;10.43;3.95;;;;;;;9.40;89.62;98028.13;5094748;28;20024;-66
2021/05/13 05:01:08;;;;;;;6.88;3.58;;;;;;;9.54;88.91;98018.13;5090930;28;20031;-67
2021/05/13 05:03:34;;;;;;;7.22;3.40;;;;;;;9.67;88.86;98019.91;5076974;28;20094;-67
2021/05/13 05:05:59;;;;;;;5.60;3.13;;;;;;;9.74;88.21;98012.59;5074243;28;20040;-67
2021/05/13 05:08:24;;;;;;;7.95;3.30;;;;;;;9.95;87.75;98018.69;5055974;28;20143;-67
2021/05/13 05:10:49;;;;;;;7.40;3.55;;;;;;;10.04;87.39;98011.97;5086689;28;20020;-69
2021/05/13 05:13:15;;;;;;;7.55;3.30;;;;;;;10.06;86.78;98024.22;5093061;28;20035;-68
2021/05/13 05:15:40;;;;;;;6.65;3.30;;;;;;;10.09;86.55;98004.88;5085329;28;20107;-67
2021/05/13 05:18:05;;;;;;;7.40;3.38;;;;;;;10.18;86.26;98013.53;5077177;28;20013;-66
2021/05/13 05:20:31;;;;;;;9.60;3.63;;;;;;;10.02;85.92;98005.97;5073615;28;20103;-67
2021/05/13 05:22:56;;;;;;;5.80;3.10;;;;;;;10.02;86.81;98016.78;5075577;28;20040;-67
2021/05/13 05:25:21;;;;;;;6.15;3.33;;;;;;;10.06;86.98;98023.38;5073732;28;20033;-67
2021/05/13 05:27:47;;;;;;;3.42;2.97;;;;;;;10.14;86.49;98004.22;5074068;28;20024;-67
2021/05/13 05:30:13;;;;;;;10.00;3.38;;;;;;;10.25;85.91;98003.50;5073534;28;20027;-68
2021/05/13 05:32:38;;;;;;;5.03;3.53;;;;;;;10.43;85.52;98000.03;5074767;28;20035;-68
2021/05/13 05:35:04;;;;;;;6.53;3.65;;;;;;;10.63;85.09;98005.25;5079903;28;20044;-67
2021/05/13 05:37:33;;;;;;;6.30;3.55;;;;;;;11.19;82.77;98006.94;5089984;28;20059;-67
2021/05/13 05:39:58;;;;;;;5.28;2.97;;;;;;;11.67;81.75;98007.16;5077713;28;20025;-67
2021/05/13 05:42:23;;;;;;;11.40;4.00;;;;;;;11.77;79.92;97989.28;5085783;28;20499;-67
2021/05/13 05:44:50;;;;;;;12.90;2.83;;;;;;;12.24;76.93;97994.00;5092936;28;20031;-67
2021/05/13 05:47:17;;;;;;;6.72;2.85;;;;;;;12.68;76.63;97994.47;5078124;28;20029;-67
2021/05/13 05:49:43;;;;;;;7.20;2.83;;;;;;;12.79;75.37;97996.38;5074368;28;20032;-69
2021/05/13 05:52:08;;;;;;;4.45;3.10;;;;;;;13.03;73.91;98008.03;5078373;28;20028;-67
2021/05/13 05:54:34;;;;;;;8.02;3.70;;;;;;;13.11;73.16;98006.84;5072096;28;20482;-68
2021/05/13 05:56:59;;;;;;;9.13;3.45;;;;;;;13.09;73.15;98000.81;5077142;28;20461;-75
2021/05/13 05:59:25;;;;;;;6.90;3.22;;;;;;;12.83;74.56;98008.41;5072438;28;20385;-76
2021/05/13 06:01:50;;;;;;;10.10;3.33;;;;;;;12.87;74.05;97990.59;5081538;28;20031;-74
2021/05/13 06:04:15;;;;;;;8.48;3.20;;;;;;;13.17;72.24;98000.44;5069505;28;20028;-74
2021/05/13 06:06:41;;;;;;;6.95;3.35;;;;;;;12.82;73.70;97990.47;5072890;28;20035;-73
2021/05/13 06:09:06;;;;;;;7.10;3.40;;;;;;;12.76;74.28;97993.28;5079171;28;20099;-72
2021/05/13 06:11:32;;;;;;;8.07;3.85;;;;;;;12.69;74.79;98002.41;5065261;28;20477;-73
2021/05/13 06:13:57;;;;;;;10.10;3.00;;;;;;;12.47;74.69;97995.91;5082854;28;20025;-74
2021/05/13 06:16:23;;;;;;;8.27;3.35;;;;;;;12.44;75.38;97994.50;5065767;28;20123;-73
2021/05/13 06:18:59;;;;;;;6.13;3.25;;;;;;;12.38;75.40;98006.28;5079880;28;20396;-74
2021/05/13 06:21:27;;;;;;;5.07;3.08;;;;;;;12.58;75.14;98005.94;5088229;28;20558;-73
2021/05/13 06:23:55;;;;;;;6.22;3.13;;;;;;;13.12;73.41;98006.59;5055500;28;20039;-75
2021/05/13 06:26:32;;;;;;;5.93;2.90;;;;;;;13.95;70.36;98006.34;5055128;28;20088;-75
2021/05/13 06:28:58;;;;;;;7.70;3.35;;;;;;;14.93;67.22;97995.91;5055004;28;20031;-68
2021/05/13 06:31:23;;;;;;;7.15;3.50;;;;;;;15.99;63.85;97973.75;5092076;28;20020;-75
2021/05/13 06:33:49;;;;;;;6.03;3.17;;;;;;;17.67;58.44;97992.25;5058397;28;20020;-76
2021/05/13 06:36:15;;;;;;;5.97;3.50;;;;;;;18.65;55.20;97989.63;5058349;28;20676;-68
2021/05/13 06:38:40;;;;;;;6.15;3.70;;;;;;;19.35;53.13;97982.34;5084322;28;20073;-68
2021/05/13 06:41:07;;;;;;;8.25;3.22;;;;;;;20.54;49.92;97983.28;5092679;28;20065;-67
2021/05/13 06:43:36;;;;;;;6.47;3.22;;;;;;;20.68;50.24;97983.47;5082370;28;20085;-69
2021/05/13 06:46:02;;;;;;;;;;;;;;;21.91;46.36;97977.34;5078335;28;20035;-67
2021/05/13 06:48:27;;;;;;;4.30;2.88;;;;;;;21.65;45.87;97977.69;5074498;28;19918;-67
2021/05/13 06:50:53;;;;;;;6.32;2.65;;;;;;;21.26;47.04;97977.06;5082327;28;20389;-67
2021/05/13 06:53:18;;;;;;;4.82;2.80;;;;;;;22.34;45.88;97984.72;5072162;28;20123;-68
2021/05/13 06:55:45;;;;;;;5.80;3.08;;;;;;;22.46;43.79;97987.84;5080416;28;20039;-67
2021/05/13 06:58:11;;;;;;;4.05;2.38;;;;;;;21.42;45.97;97989.56;5071664;28;20404;-67
2021/05/13 07:00:36;;;;;;;5.95;3.40;;;;;;;19.07;51.50;97991.22;5075401;28;20035;-67
2021/05/13 07:03:02;;;;;;;5.45;2.70;;;;;;;17.25;56.20;97990.47;5075670;28;20028;-66
2021/05/13 07:05:27;;;;;;;9.10;2.70;;;;;;;16.47;58.07;97992.16;5073871;28;20117;-69
2021/05/13 07:07:53;;;;;;;5.88;2.78;;;;;;;17.24;57.49;97975.16;5080727;28;20090;-68
2021/05/13 07:10:18;;;;;;;5.22;2.55;;;;;;;20.74;50.04;97963.88;5079939;28;20081;-67
2021/05/13 07:12:44;;;;;;;6.57;2.95;;;;;;;22.14;45.69;97972.03;5077329;28;20031;-68
2021/05/13 07:15:10;;;;;;;7.38;2.50;;;;;;;24.78;41.27;97963.34;5072271;28;20024;-76
2021/05/13 07:17:36;;;;;;;3.63;2.20;;;;;;;25.89;39.08;97964.09;5089829;28;20024;-68
2021/05/13 07:20:01;;;;;;;3.35;1.90;;;;;;;26.77;37.67;97948.22;5076014;28;20078;-68
2021/05/13 07:22:27;;;;;;;4.60;2.15;;;;;;;26.64;37.02;97959.19;5080294;28;20086;-72
2021/05/13 07:24:52;;;;;;;6.70;2.30;;;;;;;27.48;35.03;97961.50;5091938;28;20081;-69
2021/05/13 07:27:19;;;;;;;4.45;1.85;;;;;;;28.93;33.36;97958.25;5075252;28;20024;-66
2021/05/13 07:29:44;;;;;;;3.25;1.77;;;;;;;28.51;33.16;97956.38;5085537;28;20043;-67
2021/05/13 07:32:09;;;;;;;5.35;2.28;;;;;;;27.49;34.75;97940.94;5070924;28;20024;-66
2021/05/13 07:34:35;;;;;;;3.40;1.98;;;;;;;28.59;33.15;97944.34;5053224;28;20481;-66
2021/05/13 07:37:02;;;;;;;4.82;1.50;;;;;;;29.34;33.20;97937.75;5086658;28;20465;-68
2021/05/13 07:39:27;;;;;;;4.53;2.22;;;;;;;28.77;32.49;97950.56;5072836;28;20108;-67
2021/05/13 07:41:53;;;;;;;5.10;2.15;;;;;;;30.50;32.01;97940.91;5074351;28;20028;-67
2021/05/13 07:44:18;;;;;;;4.20;1.70;;;;;;;29.07;31.40;97939.25;5080983;28;20473;-68
2021/05/13 07:46:44;;;;;;;3.80;1.70;;;;;;;29.80;31.65;97935.66;5079369;28;20155;-66
2021/05/13 07:49:10;;;;;;;3.55;1.55;;;;;;;29.96;31.45;97937.72;5082386;28;20481;-66
2021/05/13 07:51:35;;;;;;;5.13;1.70;;;;;;;30.08;30.97;97934.91;5084820;28;20028;-66
2021/05/13 07:54:02;;;;;;;4.63;1.77;;;;;;;29.89;30.91;97925.19;5095519;28;20445;-66
2021/05/13 07:56:28;;;;;;;3.83;1.50;;;;;;;29.44;32.15;97940.06;5074030;28;20398;-66
2021/05/13 07:58:53;;;;;;;3.05;1.65;;;;;;;29.68;31.15;97939.28;5083547;28;20020;-66
2021/05/13 08:01:18;;;;;;;2.20;1.30;;;;;;;29.61;31.40;97933.44;5091766;28;20469;-67
2021/05/13 08:03:44;;;;;;;6.38;1.88;;;;;;;29.70;30.91;97930.56;5087748;28;20051;-66
2021/05/13 08:06:11;;;;;;;4.28;1.40;;;;;;;30.44;30.82;97916.41;5083903;28;20024;-66
2021/05/13 08:08:36;;;;;;;6.75;1.30;;;;;;;30.30;29.74;97939.94;5088779;28;20027;-66
2021/05/13 08:11:01;;;;;;;4.07;1.70;;;;;;;29.42;30.37;97936.84;5079501;28;20386;-67
2021/05/13 08:13:29;;;;;;;5.90;1.67;;;;;;;29.40;30.74;97933.59;5084656;28;20160;-66
2021/05/13 08:15:54;;;;;;;3.72;1.73;;;;;;;29.54;31.12;97926.84;5088306;28;20103;-66
2021/05/13 08:18:19;;;;;;;4.40;1.15;;;;;;;30.80;29.40;97921.78;5075353;28;20045;-66
2021/05/13 08:20:44;;;;;;;5.57;1.45;;;;;;;31.52;28.84;97923.63;5081354;28;20390;-66
2021/05/13 08:23:10;;;;;;;4.32;1.80;;;;;;;30.54;29.35;97929.84;5075445;28;20082;-66
2021/05/13 08:25:35;;;;;;;4.80;1.63;;;;;;;30.37;29.88;97928.19;5085708;28;20078;-68
2021/05/13 08:28:00;;;;;;;3.13;1.33;;;;;;;32.03;28.24;97912.38;5086264;28;20052;-66
2021/05/13 08:30:26;;;;;;;3.65;1.45;;;;;;;32.85;28.07;97904.78;5081980;28;20480;-66
2021/05/13 08:32:51;;;;;;;4.45;1.30;;;;;;;32.74;26.48;97903.81;5094282;28;20030;-66
2021/05/13 08:35:16;;;;;;;3.75;1.48;;;;;;;32.47;27.01;97914.91;5082347;28;20020;-66
2021/05/13 08:37:42;;;;;;;5.50;1.40;;;;;;;31.98;28.26;97901.47;5073688;28;20423;-67
2021/05/13 08:40:08;;;;;;;2.45;1.40;;;;;;;31.23;28.54;97908.09;5076328;28;20036;-66
2021/05/13 08:42:34;;;;;;;5.68;1.67;;;;;;;30.72;31.04;97908.78;5083778;28;20043;-67
2021/05/13 08:45:00;;;;;;;2.55;1.30;;;;;;;31.19;31.02;97894.06;5084854;28;22464;-66
2021/05/13 08:47:26;;;;;;;3.15;1.20;;;;;;;32.94;28.55;97901.75;5087263;28;20039;-66
2021/05/13 08:49:51;;;;;;;3.65;1.80;;;;;;;32.04;28.88;97910.41;5064339;28;20085;-66
2021/05/13 08:52:18;;;;;;;3.33;1.50;;;;;;;31.38;29.86;97900.91;5094483;28;20026;-66
2021/05/13 08:55:01;;;;;;;5.47;1.80;;;;;;;28.82;33.61;97904.97;5073151;28;20420;-66
2021/05/13 08:57:27;;;;;;;4.68;1.60;;;;;;;26.73;35.62;97913.97;5061646;28;20089;-66
2021/05/13 08:59:54;;;;;;;4.53;1.75;;;;;;;26.76;35.83;97908.56;5082019;28;20450;-66
2021/05/13 09:02:20;;;;;;;4.28;1.40;;;;;;;27.41;35.28;97900.13;5074805;28;20466;-66
2021/05/13 09:04:47;;;;;;;3.83;1.27;;;;;;;29.60;31.20;97891.97;5073103;28;20086;-66
2021/05/13 09:07:30;;;;;;;7.07;1.65;;;;;;;27.24;34.62;97892.69;5073080;28;20028;-66
2021/05/13 09:09:56;;;;;;;4.30;1.42;;;;;;;25.96;34.73;97897.94;5072857;28;20754;-66
2021/05/13 09:12:25;;;;;;;6.00;1.20;;;;;;;27.65;31.91;97885.59;5056993;28;20082;-67
2021/05/13 09:15:20;;;;;;;4.05;1.00;;;;;;;29.93;26.96;97892.63;5071106;28;20296;-65
2021/05/13 09:17:47;;;;;;;5.50;1.10;;;;;;;28.42;29.89;97880.50;5071949;28;20068;-65
2021/05/13 09:20:38;;;;;;;4.22;1.10;;;;;;;28.31;29.24;97885.69;5076516;28;20024;-67
2021/05/13 09:23:23;;;;;;;6.20;1.13;;;;;;;31.01;26.24;97876.84;5085537;28;20436;-67
2021/05/13 09:26:15;;;;;;;3.33;0.90;;;;;;;31.37;25.73;97866.56;5074542;28;20024;-66
2021/05/13 09:28:45;;;;;;;2.90;0.90;;;;;;;29.81;28.10;97878.72;5089095;28;20024;-69
2021/05/13 09:31:36;;;;;;;2.25;0.90;;;;;;;32.62;27.06;97864.75;5073773;28;20085;-66
2021/05/13 09:34:07;;;;;;;3.70;1.13;;;;;;;33.23;24.67;97858.22;5072643;28;20628;-68
2021/05/13 09:36:33;;;;;;;2.97;1.08;;;;;;;33.18;24.38;97847.34;5071574;28;20028;-67
2021/05/13 09:38:58;;;;;;;2.58;0.95;;;;;;;32.52;25.06;97858.59;5074360;28;20032;-66
2021/05/13 09:41:27;;;;;;;2.15;0.90;;;;;;;34.83;22.81;97853.03;5070387;28;20825;-66
2021/05/13 09:43:53;;;;;;;1.65;0.70;;;;;;;32.70;26.34;97850.53;5058633;28;20032;-66
2021/05/13 09:46:31;;;;;;;6.55;0.98;;;;;;;32.69;26.39;97842.50;5061631;28;20164;-66
2021/05/13 09:48:58;;;;;;;3.85;1.40;;;;;;;33.49;25.60;97834.97;5081563;28;20119;-66
2021/05/13 09:51:29;;;;;;;4.50;1.00;;;;;;;32.77;26.18;97838.63;5058284;28;20123;-66
2021/05/13 09:54:17;;;;;;;5.55;1.30;;;;;;;32.99;25.44;97833.38;5075928;28;20474;-66
2021/05/13 09:56:46;;;;;;;3.80;1.20;;;;;;;33.77;24.76;97819.72;5088095;28;20504;-67
2021/05/13 09:59:23;;;;;;;2.97;0.90;;;;;;;34.46;24.41;97839.00;5074228;28;20032;-66
2021/05/13 10:01:52;;;;;;;2.30;0.70;;;;;;;32.90;23.83;97830.84;5056035;28;22141;-66
2021/05/13 10:04:18;;;;;;;3.03;0.70;;;;;;;33.71;23.96;97830.47;5084401;28;20016;-67
2021/05/13 10:06:44;;;;;;;3.63;0.75;;;;;;;33.96;25.65;97824.41;5068803;28;20033;-68
2021/05/13 10:09:12;;;;;;;2.55;1.27;;;;;;;32.85;26.82;97815.16;5076606;28;20032;-66
2021/05/13 10:11:38;;;;;;;2.15;0.80;;;;;;;32.53;25.87;97826.63;5069712;28;20032;-67
2021/05/13 10:14:04;;;;;;;2.00;0.73;;;;;;;31.07;27.60;97829.06;5070205;28;20029;-67
2021/05/13 10:16:30;;;;;;;2.55;0.75;;;;;;;31.06;25.68;97819.91;5081314;28;20099;-66
2021/05/13 10:19:05;;;;;;;4.18;0.90;;;;;;;28.06;28.73;97826.41;5072239;28;20040;-67
2021/05/13 10:21:31;;;;;;;4.43;0.90;;;;;;;27.56;30.89;97830.06;5075158;28;20032;-66
2021/05/13 10:23:57;;;;;;;5.72;1.67;;;;;;;25.82;34.35;97825.19;5070659;28;20507;-66
2021/05/13 10:26:41;;;;;;;2.47;0.90;;;;;;;24.57;35.82;97830.31;5062800;28;20466;-67
2021/05/13 10:29:21;;;;;;;2.80;1.13;;;;;;;23.13;38.10;97833.81;5071308;28;20059;-66
2021/05/13 10:32:06;;;;;;;2.67;0.70;;;;;;;22.74;38.46;97806.72;5083896;28;20099;-66
2021/05/13 10:34:57;;;;;;;1.83;0.70;;;;;;;24.98;34.26;97812.56;5056250;28;20614;-66
2021/05/13 10:37:32;;;;;;;2.67;0.70;;;;;;;27.52;31.23;97810.47;5073511;28;20031;-66
2021/05/13 10:42:46;;;;;;;5.82;1.10;;;;;;;27.22;32.34;97801.41;5084032;28;20036;-66
2021/05/13 10:45:23;;;;;;;2.35;0.88;;;;;;;27.97;31.94;97818.13;5078748;28;20028;-66
2021/05/13 10:48:18;;;;;;;3.00;1.10;;;;;;;27.02;31.81;97808.53;5059426;28;20521;-64
2021/05/13 10:50:46;;;;;;;2.90;1.00;;;;;;;25.41;33.81;97812.63;5072168;28;20141;-66
2021/05/13 10:53:38;;;;;;;5.90;1.17;;;;;;;24.15;36.59;97816.75;5082364;28;20020;-65
2021/05/13 10:56:29;;;;;;;2.92;0.80;;;;;;;22.71;38.04;97815.59;5068969;28;20028;-65
2021/05/13 10:58:59;;;;;;;3.97;1.23;;;;;;;22.03;41.06;97812.47;5053520;28;20040;-65
2021/05/13 11:01:40;;;;;;;3.50;0.90;;;;;;;20.48;41.34;97805.81;5073020;28;20024;-66
2021/05/13 11:04:21;;;;;;;2.40;0.70;;;;;;;21.48;40.59;97812.25;5068350;28;20028;-66
2021/05/13 11:07:05;;;;;;;4.80;1.00;;;;;;;21.74;40.25;97809.09;5068744;28;20036;-66
2021/05/13 11:09:46;;;;;;;4.43;0.73;;;;;;;21.74;41.57;97809.91;5077723;28;20028;-70
2021/05/13 11:12:23;;;;;;;1.60;0.80;;;;;;;22.64;39.88;97798.69;5075342;28;20052;-66
2021/05/13 11:15:14;;;;;;;2.85;0.82;;;;;;;23.29;38.41;97806.69;5068678;28;20025;-67
2021/05/13 11:20:29;;;;;;;3.88;0.85;;;;;;;26.32;34.13;97799.66;5070265;28;20545;-66
2021/05/13 11:23:17;;;;;;;2.20;0.95;;;;;;;28.89;30.14;97796.63;5069134;28;20428;-65
2021/05/13 11:25:53;;;;;;;5.90;1.10;;;;;;;28.95;29.67;97800.81;5069278;28;20516;-65
2021/05/13 11:28:38;;;;;;;3.63;0.80;;;;;;;28.03;30.88;97796.47;5058739;28;20032;-69
2021/05/13 11:31:03;;;;;;;2.38;0.90;;;;;;;25.95;33.09;97806.78;5056259;28;20086;-68
2021/05/13 11:33:39;;;;;;;2.65;1.05;;;;;;;24.98;33.43;97774.63;5075183;28;20470;-72
2021/05/13 11:36:06;;;;;;;2.63;0.90;;;;;;;24.24;36.20;97800.22;5053323;28;20094;-70
2021/05/13 11:38:31;;;;;;;8.18;1.58;;;;;;;23.15;36.87;97798.41;5086353;28;20373;-74
2021/05/13 11:40:58;;;;;;;3.80;1.23;;;;;;;22.83;36.55;97790.28;5078256;28;20028;-71
2021/05/13 11:43:26;;;;;;;2.95;1.38;;;;;;;22.36;38.33;97801.41;5051436;28;20115;-71
2021/05/13 11:45:56;;;;;;;5.18;1.83;;;;;;;21.84;41.38;97812.50;5069653;28;20028;-69
2021/05/13 11:48:21;;;;;;;2.63;0.90;;;;;;;21.28;43.23;97812.53;5075944;28;20039;-71
2021/05/13 11:50:47;;;;;;;4.88;1.27;;;;;;;20.19;44.94;97823.16;5070747;28;20143;-68
2021/05/13 11:53:14;;;;;;;7.82;1.50;;;;;;;18.49;49.53;97808.88;5078601;28;20031;-67
2021/05/13 11:55:41;;;;;;;3.97;1.08;;;;;;;18.83;48.59;97806.28;5085728;28;20120;-74
2021/05/13 11:58:13;;;;;;;4.53;1.60;;;;;;;18.54;48.01;97811.59;5072197;28;20028;-71
2021/05/13 12:00:42;;;;;;;2.22;1.08;;;;;;;18.01;48.14;97808.44;5077376;28;20119;-71